Time;durP1;ratioP1;P1;durP2;ratioP2;P2;SDS_P1;SDS_P2;PMS_P1;PMS_P2;Temp;Humidity;BMP_temperature;BMP_pressure;BME280_temperature;BME280_humidity;BME280_pressure;Samples;Min_cycle;Max_cycle;Signal;HPM_P1;HPM_P2
2020/12/28 00:00:50;;;;;;;25.98;6.85;;;3.80;84.00;;;;;;4991141;28;20029;-56
2020/12/28 00:03:16;;;;;;;19.55;5.65;;;3.80;84.00;;;;;;4991151;28;20054;-59
2020/12/28 00:05:41;;;;;;;27.02;5.72;;;3.80;84.10;;;;;;4991209;28;20516;-57
2020/12/28 00:08:07;;;;;;;28.48;5.60;;;3.80;84.10;;;;;;4991161;28;20066;-56
2020/12/28 00:10:32;;;;;;;25.55;5.07;;;3.80;84.00;;;;;;4987988;28;20038;-56
2020/12/28 00:13:00;;;;;;;25.27;6.43;;;3.80;84.00;;;;;;4990622;28;20053;-57
2020/12/28 00:15:26;;;;;;;23.38;5.95;;;3.80;84.00;;;;;;4972951;28;20030;-57
2020/12/28 00:17:56;;;;;;;18.73;4.93;;;3.80;84.00;;;;;;4989390;28;20022;-56
2020/12/28 00:20:23;;;;;;;20.50;6.15;;;3.80;84.00;;;;;;4989469;28;20018;-57
2020/12/28 00:22:49;;;;;;;21.90;6.05;;;3.80;84.00;;;;;;4987541;28;20022;-60
2020/12/28 00:25:16;;;;;;;14.48;5.07;;;3.80;84.00;;;;;;4983954;28;20331;-57
2020/12/28 00:27:42;;;;;;;21.88;5.07;;;3.80;84.10;;;;;;4991006;28;20038;-58
2020/12/28 00:30:07;;;;;;;18.02;5.47;;;3.90;84.20;;;;;;4990389;28;20015;-58
2020/12/28 00:32:36;;;;;;;13.95;5.10;;;3.90;84.20;;;;;;5005578;28;20050;-57
2020/12/28 00:35:03;;;;;;;23.73;6.43;;;3.80;84.20;;;;;;4989959;28;20557;-59
2020/12/28 00:37:29;;;;;;;23.67;5.60;;;3.90;84.20;;;;;;4984626;28;20552;-58
2020/12/28 00:39:54;;;;;;;26.23;6.25;;;3.80;84.10;;;;;;4989394;28;20026;-57
2020/12/28 00:42:20;;;;;;;19.30;5.65;;;3.80;84.20;;;;;;4988473;28;20033;-57
2020/12/28 00:44:45;;;;;;;20.67;4.93;;;3.80;84.20;;;;;;4988721;28;20039;-59
2020/12/28 00:47:11;;;;;;;14.82;5.68;;;3.90;84.30;;;;;;4990317;28;20023;-58
2020/12/28 00:49:36;;;;;;;20.60;5.30;;;3.90;84.30;;;;;;4985203;28;20502;-58
2020/12/28 00:52:02;;;;;;;12.77;4.78;;;3.90;84.30;;;;;;4985022;28;20026;-58
2020/12/28 00:54:28;;;;;;;26.13;6.72;;;3.90;84.30;;;;;;4989707;28;20024;-56
2020/12/28 00:56:53;;;;;;;23.13;5.93;;;3.90;84.40;;;;;;4986443;28;20142;-56
2020/12/28 00:59:19;;;;;;;16.25;4.70;;;3.90;84.30;;;;;;4987489;28;20030;-57
2020/12/28 01:01:44;;;;;;;28.52;5.32;;;3.90;84.40;;;;;;4982366;28;20463;-58
2020/12/28 01:04:10;;;;;;;15.57;5.00;;;3.90;84.30;;;;;;4984557;28;20035;-58
2020/12/28 01:06:41;;;;;;;20.10;5.18;;;3.90;84.30;;;;;;4983358;28;20066;-58
2020/12/28 01:09:07;;;;;;;25.42;5.85;;;3.90;84.30;;;;;;4990363;28;20037;-60
2020/12/28 01:11:32;;;;;;;22.27;5.13;;;3.90;84.20;;;;;;4989941;28;20385;-59
2020/12/28 01:13:58;;;;;;;22.20;5.15;;;3.90;84.30;;;;;;4989521;28;20066;-59
2020/12/28 01:16:24;;;;;;;17.70;4.97;;;4.00;84.40;;;;;;4985477;28;20034;-57
2020/12/28 01:18:49;;;;;;;15.15;5.38;;;4.00;84.40;;;;;;4987295;28;20045;-58
2020/12/28 01:21:21;;;;;;;14.80;4.60;;;4.00;84.50;;;;;;4988598;28;20038;-59
2020/12/28 01:23:46;;;;;;;22.77;5.03;;;4.00;84.50;;;;;;4989873;28;20096;-57
2020/12/28 01:26:16;;;;;;;16.08;4.75;;;3.90;84.50;;;;;;4989155;28;20026;-60
2020/12/28 01:28:42;;;;;;;18.88;5.43;;;3.90;84.40;;;;;;4987995;28;20129;-58
2020/12/28 01:31:07;;;;;;;17.73;4.70;;;4.00;84.50;;;;;;4986996;28;20097;-59
2020/12/28 01:33:33;;;;;;;16.13;4.63;;;4.00;84.50;;;;;;4988366;28;20430;-57
2020/12/28 01:35:59;;;;;;;20.70;5.65;;;4.00;84.40;;;;;;4989706;28;20049;-56
2020/12/28 01:38:24;;;;;;;17.30;4.78;;;4.00;84.50;;;;;;4989953;28;20062;-57
2020/12/28 01:40:50;;;;;;;12.30;4.75;;;4.00;84.60;;;;;;4988337;28;20115;-57
2020/12/28 01:43:17;;;;;;;18.23;5.22;;;4.00;84.50;;;;;;4984167;28;20031;-57
2020/12/28 01:45:42;;;;;;;13.75;5.18;;;4.00;84.50;;;;;;4989783;28;20022;-57
2020/12/28 01:48:08;;;;;;;14.15;5.10;;;4.00;84.60;;;;;;4989457;28;20042;-59
2020/12/28 01:50:33;;;;;;;26.60;5.35;;;4.00;84.60;;;;;;4989557;28;20026;-59
2020/12/28 01:52:59;;;;;;;12.60;4.57;;;4.00;84.60;;;;;;4989519;28;20027;-58
2020/12/28 01:55:24;;;;;;;13.90;5.15;;;4.00;84.70;;;;;;4992087;28;20046;-57
2020/12/28 01:57:50;;;;;;;18.70;4.97;;;4.00;84.60;;;;;;4975782;28;20505;-56
2020/12/28 02:00:15;;;;;;;14.85;4.85;;;4.00;84.70;;;;;;4975663;28;20029;-56
2020/12/28 02:02:41;;;;;;;12.82;4.72;;;4.00;84.70;;;;;;4993386;28;20050;-56
2020/12/28 02:05:06;;;;;;;10.23;4.07;;;4.00;84.70;;;;;;4993397;28;20030;-59
2020/12/28 02:07:34;;;;;;;16.70;4.50;;;4.00;84.70;;;;;;4989477;28;20430;-59
2020/12/28 02:10:05;;;;;;;15.23;4.82;;;4.10;84.80;;;;;;4985900;28;20151;-58
2020/12/28 02:12:30;;;;;;;12.65;4.38;;;4.00;84.70;;;;;;4976101;28;20037;-58
2020/12/28 02:14:55;;;;;;;13.80;4.65;;;4.00;84.80;;;;;;4993018;28;20035;-59
2020/12/28 02:17:21;;;;;;;17.77;4.60;;;4.00;84.80;;;;;;4991891;28;20030;-56
2020/12/28 02:19:47;;;;;;;15.75;4.68;;;4.00;84.70;;;;;;4990803;28;20398;-58
2020/12/28 02:22:12;;;;;;;20.42;4.70;;;4.00;84.70;;;;;;4991445;28;20101;-59
2020/12/28 02:24:38;;;;;;;19.30;4.80;;;4.10;84.80;;;;;;4993555;28;20030;-57
2020/12/28 02:27:03;;;;;;;15.27;4.65;;;4.10;84.90;;;;;;4992787;28;20034;-58
2020/12/28 02:29:29;;;;;;;12.10;4.30;;;4.10;84.90;;;;;;4992599;28;20038;-58
2020/12/28 02:31:54;;;;;;;15.95;4.50;;;4.10;84.90;;;;;;4990699;28;20035;-57
2020/12/28 02:34:20;;;;;;;9.43;4.03;;;4.00;84.80;;;;;;4989424;28;20045;-57
2020/12/28 02:36:45;;;;;;;16.55;4.43;;;4.10;84.90;;;;;;4990302;28;20045;-57
2020/12/28 02:39:11;;;;;;;10.00;4.05;;;4.10;84.90;;;;;;4992213;28;20015;-59
2020/12/28 02:41:36;;;;;;;9.77;4.28;;;4.10;84.90;;;;;;4992433;28;20442;-59
2020/12/28 02:44:02;;;;;;;14.10;4.13;;;4.10;84.90;;;;;;4992877;28;20051;-59
2020/12/28 02:46:27;;;;;;;18.60;4.35;;;4.10;84.90;;;;;;4990168;28;20394;-57
2020/12/28 02:48:53;;;;;;;12.82;4.63;;;4.10;84.90;;;;;;4991201;28;20065;-57
2020/12/28 02:51:18;;;;;;;12.18;4.50;;;4.10;85.00;;;;;;4992524;28;20022;-58
2020/12/28 02:53:44;;;;;;;11.90;4.13;;;4.10;84.90;;;;;;4982706;28;20520;-58
2020/12/28 02:56:09;;;;;;;12.50;4.45;;;4.10;85.00;;;;;;4992186;28;20034;-56
2020/12/28 02:58:35;;;;;;;10.45;4.40;;;4.10;84.90;;;;;;4985068;28;20106;-57
2020/12/28 03:01:00;;;;;;;20.92;4.53;;;4.10;85.00;;;;;;4982667;28;20049;-60
2020/12/28 03:03:26;;;;;;;12.60;4.75;;;4.10;85.00;;;;;;4986145;28;20034;-57
2020/12/28 03:05:51;;;;;;;12.80;4.22;;;4.10;85.60;;;;;;4986004;28;20035;-59
2020/12/28 03:08:17;;;;;;;11.20;4.13;;;4.10;85.00;;;;;;4976753;28;20456;-59
2020/12/28 03:10:42;;;;;;;13.07;3.97;;;4.10;85.00;;;;;;4987034;28;20488;-56
2020/12/28 03:13:08;;;;;;;16.40;4.72;;;4.10;85.00;;;;;;4975582;28;20051;-56
2020/12/28 03:15:33;;;;;;;10.90;4.40;;;4.10;85.70;;;;;;4978919;28;20066;-58
2020/12/28 03:17:59;;;;;;;8.48;3.92;;;4.10;85.00;;;;;;4981785;28;20161;-59
2020/12/28 03:20:24;;;;;;;13.07;4.13;;;4.10;85.00;;;;;;4982166;28;20541;-57
2020/12/28 03:22:50;;;;;;;9.18;3.80;;;4.20;85.00;;;;;;4959660;28;20031;-60
2020/12/28 03:25:15;;;;;;;8.32;3.53;;;4.10;85.00;;;;;;4984917;28;20418;-59
2020/12/28 03:27:41;;;;;;;13.52;4.30;;;4.10;85.00;;;;;;4982010;28;20093;-56
2020/12/28 03:30:06;;;;;;;7.43;3.20;;;4.20;85.00;;;;;;4991484;28;20030;-59
2020/12/28 03:32:32;;;;;;;14.38;4.22;;;4.20;85.10;;;;;;4991729;28;20499;-56
2020/12/28 03:34:57;;;;;;;10.13;4.50;;;4.20;85.20;;;;;;4980626;28;20066;-56
2020/12/28 03:37:23;;;;;;;13.85;3.95;;;4.10;85.20;;;;;;4977173;28;20047;-57
2020/12/28 03:39:48;;;;;;;9.52;3.50;;;4.20;85.20;;;;;;4975816;28;20121;-57
2020/12/28 03:42:14;;;;;;;10.93;4.00;;;4.10;85.20;;;;;;4977410;28;20134;-58
2020/12/28 03:44:39;;;;;;;10.80;4.30;;;4.20;85.40;;;;;;4969750;28;20449;-57
2020/12/28 03:47:05;;;;;;;11.25;3.83;;;4.20;85.40;;;;;;4977500;28;20038;-59
2020/12/28 03:49:30;;;;;;;15.73;4.50;;;4.20;85.50;;;;;;4976932;28;20028;-58
2020/12/28 03:51:56;;;;;;;11.80;3.65;;;4.20;85.60;;;;;;4974715;28;20054;-57
2020/12/28 03:54:21;;;;;;;12.98;3.95;;;4.20;85.50;;;;;;4989009;28;20170;-57
2020/12/28 03:56:47;;;;;;;12.52;3.78;;;4.20;85.50;;;;;;4991446;28;20018;-58
2020/12/28 03:59:12;;;;;;;8.52;4.03;;;4.20;85.40;;;;;;4978957;28;20034;-57
2020/12/28 04:01:38;;;;;;;7.65;3.33;;;4.20;85.40;;;;;;4991101;28;20058;-58
2020/12/28 04:04:03;;;;;;;11.07;3.78;;;4.20;85.40;;;;;;4990761;28;20108;-59
2020/12/28 04:06:29;;;;;;;11.98;4.10;;;4.20;85.40;;;;;;4989774;28;20550;-60
2020/12/28 04:08:54;;;;;;;11.75;3.55;;;4.20;85.50;;;;;;4991374;28;20034;-57
2020/12/28 04:11:20;;;;;;;17.05;3.90;;;4.20;85.50;;;;;;4990882;28;20041;-58
2020/12/28 04:13:45;;;;;;;14.57;4.47;;;4.20;85.50;;;;;;4991081;28;20027;-59
2020/12/28 04:16:14;;;;;;;9.75;3.45;;;4.20;85.50;;;;;;4990033;28;20037;-59
2020/12/28 04:18:39;;;;;;;8.15;3.70;;;4.20;85.50;;;;;;4984639;28;20046;-59
2020/12/28 04:21:05;;;;;;;9.07;3.90;;;4.20;85.50;;;;;;4990062;28;20096;-58
2020/12/28 04:23:30;;;;;;;9.77;3.40;;;4.30;85.50;;;;;;4990986;28;20027;-60
2020/12/28 04:25:56;;;;;;;7.07;3.33;;;4.30;85.50;;;;;;4990872;28;20053;-58
2020/12/28 04:28:21;;;;;;;8.77;4.03;;;4.30;85.50;;;;;;4990864;28;20101;-58
2020/12/28 04:30:47;;;;;;;12.57;3.60;;;4.20;85.40;;;;;;4989569;28;20030;-58
2020/12/28 04:33:13;;;;;;;7.15;3.40;;;4.30;86.20;;;;;;4989377;28;20486;-59
2020/12/28 04:35:38;;;;;;;10.52;4.00;;;4.30;85.60;;;;;;4989734;28;20042;-57
2020/12/28 04:38:04;;;;;;;10.40;3.70;;;4.30;85.60;;;;;;4990709;28;20037;-58
2020/12/28 04:40:30;;;;;;;8.85;3.22;;;4.30;85.60;;;;;;4990165;28;20023;-59
2020/12/28 04:42:55;;;;;;;7.25;3.33;;;4.30;85.60;;;;;;4988550;28;20023;-58
2020/12/28 04:45:21;;;;;;;7.72;3.72;;;4.20;85.50;;;;;;4984380;28;20347;-57
2020/12/28 04:47:46;;;;;;;8.15;3.85;;;4.30;85.60;;;;;;4990390;28;20031;-57
2020/12/28 04:50:12;;;;;;;11.32;3.92;;;4.30;85.60;;;;;;4975873;28;20030;-59
2020/12/28 04:52:37;;;;;;;8.75;3.45;;;4.30;85.60;;;;;;4976906;28;20019;-59
2020/12/28 04:55:03;;;;;;;14.00;3.95;;;4.30;85.60;;;;;;4976455;28;20062;-57
2020/12/28 04:57:29;;;;;;;12.95;3.42;;;4.30;85.70;;;;;;4965730;28;20113;-59
2020/12/28 04:59:57;;;;;;;10.07;3.72;;;4.30;85.80;;;;;;4977515;28;20364;-60
2020/12/28 05:02:26;;;;;;;6.82;3.22;;;4.30;85.90;;;;;;4984581;28;20041;-58
2020/12/28 05:04:51;;;;;;;8.25;2.90;;;4.30;86.10;;;;;;4985459;28;20026;-57
2020/12/28 05:07:17;;;;;;;9.40;3.50;;;4.30;86.00;;;;;;4998363;28;20442;-58
2020/12/28 05:09:42;;;;;;;8.73;3.47;;;4.30;86.10;;;;;;4975937;28;20355;-58
2020/12/28 05:12:08;;;;;;;8.45;3.45;;;4.30;86.20;;;;;;4976338;28;20038;-58
2020/12/28 05:14:34;;;;;;;9.32;3.08;;;4.30;86.10;;;;;;4990227;28;20032;-57
2020/12/28 05:17:01;;;;;;;9.27;3.30;;;4.30;86.10;;;;;;4981924;28;20026;-58
2020/12/28 05:19:27;;;;;;;8.07;3.42;;;4.30;86.20;;;;;;4983684;28;20481;-60
2020/12/28 05:21:53;;;;;;;7.32;2.90;;;4.40;86.40;;;;;;4980161;28;20081;-57
2020/12/28 05:24:19;;;;;;;8.43;3.63;;;4.30;86.40;;;;;;4975996;28;20031;-57
2020/12/28 05:26:45;;;;;;;7.60;3.08;;;4.40;86.30;;;;;;4977354;28;20026;-56
2020/12/28 05:29:17;;;;;;;5.90;3.10;;;4.30;86.30;;;;;;4984490;28;20049;-58
2020/12/28 05:31:44;;;;;;;7.55;3.53;;;4.30;86.20;;;;;;4981630;28;20019;-58
2020/12/28 05:34:12;;;;;;;10.65;3.33;;;4.30;86.20;;;;;;4960457;28;20023;-57
2020/12/28 05:36:38;;;;;;;7.88;3.17;;;4.30;86.20;;;;;;4975130;28;20039;-59
2020/12/28 05:39:03;;;;;;;9.10;3.00;;;4.30;86.20;;;;;;4988616;28;20034;-59
2020/12/28 05:41:29;;;;;;;7.45;3.30;;;4.30;86.20;;;;;;4980307;28;20030;-58
2020/12/28 05:43:54;;;;;;;7.55;3.17;;;4.30;86.30;;;;;;4983125;28;20561;-59
2020/12/28 05:46:23;;;;;;;9.48;3.15;;;4.40;86.30;;;;;;4976866;28;20478;-59
2020/12/28 05:48:53;;;;;;;6.57;3.30;;;4.30;86.20;;;;;;4974624;28;20041;-60
2020/12/28 05:51:18;;;;;;;7.93;3.10;;;4.30;86.20;;;;;;4960194;28;20486;-57
2020/12/28 05:53:44;;;;;;;6.18;2.97;;;4.40;86.20;;;;;;4974265;28;20085;-57
2020/12/28 05:56:09;;;;;;;7.85;2.92;;;4.40;86.30;;;;;;4988296;28;20097;-59
2020/12/28 05:58:35;;;;;;;6.20;2.63;;;4.40;86.30;;;;;;4966193;28;20051;-60
2020/12/28 06:01:00;;;;;;;6.18;3.10;;;4.30;87.00;;;;;;4984007;28;20385;-58
2020/12/28 06:03:28;;;;;;;5.93;3.17;;;4.40;86.40;;;;;;4983372;28;20037;-59
2020/12/28 06:05:54;;;;;;;8.10;3.25;;;4.30;86.40;;;;;;4988687;28;20355;-59
2020/12/28 06:08:19;;;;;;;5.88;3.10;;;4.30;86.40;;;;;;4982876;28;20042;-59
2020/12/28 06:10:45;;;;;;;6.53;2.95;;;4.40;86.40;;;;;;4992109;28;20030;-59
2020/12/28 06:13:28;;;;;;;7.03;2.60;;;4.40;86.50;;;;;;4974208;28;20038;-57
2020/12/28 06:16:03;;;;;;;9.88;3.25;;;4.40;86.40;;;;;;4976003;28;20038;-57
2020/12/28 06:18:29;;;;;;;;;;;4.40;86.40;;;;;;4972422;28;20034;-59
2020/12/28 06:20:55;;;;;;;;;;;4.40;86.50;;;;;;4985658;28;19916;-60
2020/12/28 06:23:24;;;;;;;6.43;3.00;;;4.40;86.60;;;;;;4972485;28;20294;-57
2020/12/28 06:25:53;;;;;;;7.90;2.53;;;4.40;86.60;;;;;;4985028;28;20026;-59
2020/12/28 06:28:26;;;;;;;6.10;2.80;;;4.40;86.70;;;;;;4971617;28;20109;-58
2020/12/28 06:30:52;;;;;;;6.47;3.00;;;4.40;86.80;;;;;;4985515;28;20133;-58
2020/12/28 06:33:17;;;;;;;6.00;2.88;;;4.40;86.90;;;;;;4988089;28;20494;-58
2020/12/28 06:35:43;;;;;;;6.97;2.55;;;4.40;86.90;;;;;;4987117;28;20119;-58
2020/12/28 06:38:08;;;;;;;6.53;2.67;;;4.40;87.10;;;;;;4978528;28;20029;-59
2020/12/28 06:40:38;;;;;;;5.88;2.95;;;4.40;87.10;;;;;;4977198;28;20034;-60
2020/12/28 06:43:16;;;;;;;11.00;2.58;;;4.40;87.10;;;;;;4976370;28;20474;-57
2020/12/28 06:45:52;;;;;;;5.53;2.83;;;4.40;87.20;;;;;;4986464;28;20487;-59
2020/12/28 06:48:18;;;;;;;3.25;2.13;;;4.40;87.30;;;;;;4964663;28;20026;-57
2020/12/28 06:50:44;;;;;;;7.35;2.95;;;4.40;87.50;;;;;;4984388;28;20038;-59
2020/12/28 06:53:09;;;;;;;4.38;2.88;;;4.40;87.50;;;;;;4978358;28;20037;-59
2020/12/28 06:55:35;;;;;;;6.22;3.20;;;4.40;87.50;;;;;;4965222;28;20482;-59
2020/12/28 06:58:01;;;;;;;5.55;2.67;;;4.40;87.50;;;;;;4989789;28;20061;-56
2020/12/28 07:00:26;;;;;;;5.93;3.00;;;4.40;87.50;;;;;;4992300;28;20340;-59
2020/12/28 07:02:52;;;;;;;12.35;3.15;;;4.40;87.40;;;;;;5007178;28;20042;-57
2020/12/28 07:05:20;;;;;;;6.25;2.65;;;4.40;87.50;;;;;;4991351;28;20031;-58
2020/12/28 07:07:45;;;;;;;4.93;2.70;;;4.40;87.50;;;;;;4971076;28;20056;-59
2020/12/28 07:10:20;;;;;;;7.10;2.60;;;4.40;87.50;;;;;;4963267;28;20081;-59
2020/12/28 07:12:46;;;;;;;5.75;2.53;;;4.40;87.40;;;;;;4989106;28;20117;-57
2020/12/28 07:15:11;;;;;;;4.57;2.42;;;4.40;87.30;;;;;;4976770;28;20109;-57
2020/12/28 07:17:37;;;;;;;4.18;2.28;;;4.40;87.30;;;;;;4980342;28;20030;-58
2020/12/28 07:20:13;;;;;;;4.60;2.20;;;4.30;87.30;;;;;;4975067;28;20051;-59
2020/12/28 07:22:40;;;;;;;3.45;2.30;;;4.40;87.30;;;;;;4986576;28;20037;-59
2020/12/28 07:25:06;;;;;;;7.55;2.88;;;4.40;87.30;;;;;;4990756;28;20046;-57
2020/12/28 07:27:32;;;;;;;5.50;3.20;;;4.40;87.30;;;;;;4984156;28;20069;-57
2020/12/28 07:29:57;;;;;;;6.85;2.85;;;4.40;87.40;;;;;;4985022;28;20466;-57
2020/12/28 07:32:23;;;;;;;6.00;2.75;;;4.40;87.40;;;;;;4978746;28;20117;-57
2020/12/28 07:34:52;;;;;;;5.35;2.55;;;4.40;87.30;;;;;;4975478;28;20105;-58
2020/12/28 07:37:18;;;;;;;5.53;2.75;;;4.40;87.30;;;;;;4976926;28;20042;-58
2020/12/28 07:39:46;;;;;;;6.50;2.72;;;4.40;87.30;;;;;;4985646;28;20030;-57
2020/12/28 07:42:16;;;;;;;6.43;2.38;;;4.40;87.50;;;;;;4985741;28;20041;-57
2020/12/28 07:44:41;;;;;;;8.52;2.22;;;4.40;87.40;;;;;;4978173;28;20055;-57
2020/12/28 07:47:09;;;;;;;6.88;2.88;;;4.50;87.60;;;;;;4951681;28;20134;-59
2020/12/28 07:49:36;;;;;;;4.82;2.38;;;4.40;87.60;;;;;;4988545;28;20037;-59
2020/12/28 07:52:15;;;;;;;5.03;2.53;;;4.40;87.60;;;;;;4990192;28;20040;-58
2020/12/28 07:54:43;;;;;;;6.30;2.35;;;4.40;87.80;;;;;;4996616;28;20469;-56
2020/12/28 07:57:15;;;;;;;4.50;2.53;;;4.40;88.00;;;;;;4991210;28;20022;-58
2020/12/28 07:59:58;;;;;;;3.58;2.35;;;4.40;88.00;;;;;;5001379;28;20046;-58
2020/12/28 08:02:25;;;;;;;5.43;2.75;;;4.40;87.80;;;;;;4970844;28;20034;-59
2020/12/28 08:04:50;;;;;;;4.43;2.58;;;4.40;87.90;;;;;;4997729;28;20117;-58
2020/12/28 08:07:20;;;;;;;7.20;2.28;;;4.40;87.90;;;;;;4996493;28;20102;-58
2020/12/28 08:09:53;;;;;;;6.55;2.35;;;4.50;88.00;;;;;;4980980;28;20100;-59
2020/12/28 08:12:19;;;;;;;4.15;2.08;;;4.50;88.30;;;;;;4994154;28;20042;-57
2020/12/28 08:14:54;;;;;;;5.03;2.50;;;4.40;88.50;;;;;;5004346;28;20073;-59
2020/12/28 08:17:27;;;;;;;5.93;2.58;;;4.50;88.80;;;;;;4989091;28;20037;-59
2020/12/28 08:20:07;;;;;;;3.33;2.08;;;4.50;89.00;;;;;;4988494;28;20046;-59
2020/12/28 08:22:33;;;;;;;4.30;2.50;;;4.50;88.90;;;;;;4988581;28;20034;-57
2020/12/28 08:24:59;;;;;;;6.55;2.40;;;4.50;89.10;;;;;;4986413;28;20026;-57
2020/12/28 08:27:29;;;;;;;2.50;2.03;;;4.50;89.20;;;;;;4977842;28;20048;-59
2020/12/28 08:29:54;;;;;;;5.00;2.30;;;4.50;89.40;;;;;;4988242;28;20072;-56
2020/12/28 08:32:20;;;;;;;3.38;2.10;;;4.50;89.40;;;;;;4987518;28;20037;-57
2020/12/28 08:34:58;;;;;;;11.00;2.30;;;4.50;89.40;;;;;;4987465;28;20260;-58
2020/12/28 08:37:24;;;;;;;6.97;2.67;;;4.50;89.50;;;;;;4986625;28;20037;-59
2020/12/28 08:39:49;;;;;;;6.07;2.35;;;4.50;89.40;;;;;;4979761;28;20038;-59
2020/12/28 08:42:25;;;;;;;6.80;2.60;;;4.50;89.20;;;;;;4983447;28;20035;-58
2020/12/28 08:44:51;;;;;;;9.27;3.28;;;4.50;89.00;;;;;;4979964;28;20058;-56
2020/12/28 08:47:16;;;;;;;10.93;3.13;;;4.60;89.00;;;;;;4978953;28;20038;-57
2020/12/28 08:49:42;;;;;;;9.10;2.78;;;4.50;89.10;;;;;;4987339;28;20498;-58
2020/12/28 08:52:17;;;;;;;10.90;2.72;;;4.60;89.30;;;;;;4992392;28;20417;-57
2020/12/28 08:54:51;;;;;;;10.35;2.67;;;4.60;89.30;;;;;;4982309;28;20120;-58
2020/12/28 08:57:21;;;;;;;8.82;3.58;;;4.60;89.20;;;;;;4984221;28;20394;-57
2020/12/28 08:59:47;;;;;;;11.32;2.63;;;4.60;89.40;;;;;;4997193;28;20821;-60
2020/12/28 09:02:16;;;;;;;10.35;3.17;;;4.60;89.50;;;;;;4990465;28;20025;-59
2020/12/28 09:04:42;;;;;;;8.95;2.20;;;4.60;89.70;;;;;;4997577;28;20022;-57
2020/12/28 09:07:07;;;;;;;8.45;3.00;;;4.60;89.70;;;;;;4978596;28;20437;-58
2020/12/28 09:09:33;;;;;;;19.98;3.75;;;4.60;89.80;;;;;;4980916;28;20045;-58
2020/12/28 09:11:58;;;;;;;13.80;3.25;;;4.70;90.00;;;;;;4993940;28;20032;-57
2020/12/28 09:14:24;;;;;;;18.50;3.53;;;4.60;90.00;;;;;;4989704;28;20386;-57
2020/12/28 09:16:50;;;;;;;45.15;4.57;;;4.70;90.30;;;;;;4990717;28;20030;-58
2020/12/28 09:19:15;;;;;;;24.25;4.40;;;4.60;90.10;;;;;;4989012;28;20054;-58
2020/12/28 09:21:41;;;;;;;20.40;4.07;;;4.60;90.30;;;;;;4987476;28;20128;-58
2020/12/28 09:24:07;;;;;;;40.65;5.13;;;4.60;90.30;;;;;;4988891;28;20536;-57
2020/12/28 09:26:34;;;;;;;27.30;4.30;;;4.70;90.30;;;;;;5003903;28;20081;-56
2020/12/28 09:29:00;;;;;;;31.88;4.35;;;4.70;90.40;;;;;;4992956;28;20064;-58
2020/12/28 09:31:25;;;;;;;26.65;5.25;;;4.70;90.40;;;;;;4989199;28;20455;-58
2020/12/28 09:33:51;;;;;;;14.38;5.05;;;4.70;90.40;;;;;;4986893;28;20038;-58
2020/12/28 09:36:20;;;;;;;23.00;4.43;;;4.70;90.50;;;;;;4987584;28;20037;-58
2020/12/28 09:38:46;;;;;;;32.63;5.43;;;4.70;90.50;;;;;;5005106;28;20033;-57
2020/12/28 09:41:11;;;;;;;35.30;5.53;;;4.70;90.50;;;;;;5000021;28;20531;-57
2020/12/28 09:43:39;;;;;;;32.45;6.63;;;4.70;90.50;;;;;;4984150;28;20129;-57
2020/12/28 09:46:04;;;;;;;40.00;5.18;;;4.80;90.60;;;;;;4988150;28;20066;-58
2020/12/28 09:48:31;;;;;;;25.88;4.60;;;4.80;90.50;;;;;;4982291;28;20058;-57
2020/12/28 09:50:57;;;;;;;19.50;5.05;;;4.80;90.60;;;;;;4988504;28;20444;-58
2020/12/28 09:53:22;;;;;;;34.90;4.85;;;4.80;90.50;;;;;;4985259;28;20034;-58
2020/12/28 09:55:48;;;;;;;22.80;4.15;;;4.80;90.70;;;;;;4984099;28;20393;-58
2020/12/28 09:58:13;;;;;;;19.02;4.32;;;4.80;90.80;;;;;;4984464;28;20467;-58
2020/12/28 10:00:39;;;;;;;25.25;4.85;;;4.80;90.70;;;;;;4986038;28;20221;-57
2020/12/28 10:03:04;;;;;;;20.40;4.13;;;4.80;90.60;;;;;;4988405;28;20037;-57
2020/12/28 10:05:30;;;;;;;19.92;4.32;;;4.80;90.50;;;;;;4989304;28;20031;-57
2020/12/28 10:07:55;;;;;;;24.70;5.05;;;4.80;90.50;;;;;;4996513;28;20053;-57
2020/12/28 10:10:21;;;;;;;62.90;6.82;;;4.90;90.70;;;;;;4984160;28;20031;-59
2020/12/28 10:12:46;;;;;;;33.70;4.55;;;4.80;90.60;;;;;;4986965;28;20038;-58
2020/12/28 10:15:12;;;;;;;30.40;5.50;;;4.90;90.60;;;;;;4986917;28;20424;-57
2020/12/28 10:17:37;;;;;;;23.25;4.43;;;4.90;90.60;;;;;;4989063;28;20466;-57
2020/12/28 10:20:03;;;;;;;45.28;5.57;;;4.90;90.60;;;;;;4990650;28;20034;-57
2020/12/28 10:22:29;;;;;;;53.17;5.70;;;4.90;90.50;;;;;;4991350;28;20023;-58
2020/12/28 10:24:55;;;;;;;28.52;5.13;;;4.90;90.50;;;;;;5000546;28;20030;-59
2020/12/28 10:27:20;;;;;;;61.45;6.32;;;4.90;90.60;;;;;;4988543;28;20573;-59
2020/12/28 10:29:46;;;;;;;35.80;5.25;;;4.90;90.60;;;;;;4985467;28;20755;-58
2020/12/28 10:32:11;;;;;;;28.75;5.20;;;4.90;90.70;;;;;;4989624;28;20038;-57
2020/12/28 10:34:37;;;;;;;35.13;5.47;;;4.90;90.60;;;;;;4986535;28;20060;-58
2020/12/28 10:37:02;;;;;;;25.85;4.60;;;4.90;90.60;;;;;;4989506;28;20112;-59
2020/12/28 10:39:28;;;;;;;44.28;5.03;;;5.00;90.70;;;;;;4982603;28;20510;-58
2020/12/28 10:41:53;;;;;;;27.73;4.75;;;5.00;90.50;;;;;;4988651;28;20037;-57
2020/12/28 10:44:19;;;;;;;28.35;5.25;;;5.00;90.40;;;;;;4985921;28;20051;-57
2020/12/28 10:46:45;;;;;;;36.70;5.40;;;5.00;90.50;;;;;;4990629;28;20544;-58
2020/12/28 10:49:10;;;;;;;29.25;5.60;;;5.00;90.60;;;;;;4990591;28;20315;-59
2020/12/28 10:51:36;;;;;;;40.22;5.43;;;5.00;90.60;;;;;;4988323;28;20081;-58
2020/12/28 10:54:02;;;;;;;30.00;5.72;;;5.00;90.70;;;;;;4972515;28;20109;-58
2020/12/28 10:56:28;;;;;;;33.33;5.47;;;5.00;90.80;;;;;;4985530;28;20081;-58
2020/12/28 10:58:57;;;;;;;35.38;5.68;;;5.00;90.70;;;;;;4991953;28;20203;-58
2020/12/28 11:01:24;;;;;;;37.78;4.95;;;5.00;90.70;;;;;;4990730;28;20022;-57
2020/12/28 11:03:50;;;;;;;31.25;5.90;;;5.10;90.80;;;;;;4972845;28;20058;-57
2020/12/28 11:06:19;;;;;;;26.83;5.40;;;5.10;90.70;;;;;;4989798;28;20084;-58
2020/12/28 11:08:45;;;;;;;42.85;5.75;;;5.10;90.60;;;;;;4982343;28;20038;-57
2020/12/28 11:11:11;;;;;;;37.30;5.60;;;5.10;90.70;;;;;;4987393;28;20077;-59
2020/12/28 11:13:36;;;;;;;38.30;5.00;;;5.10;90.80;;;;;;4985032;28;20026;-59
2020/12/28 11:16:02;;;;;;;30.60;4.72;;;5.10;90.70;;;;;;4989135;28;20034;-59
2020/12/28 11:18:27;;;;;;;35.25;5.10;;;5.10;90.70;;;;;;4984766;28;20121;-59
2020/12/28 11:20:53;;;;;;;29.90;5.10;;;5.10;90.80;;;;;;4982958;28;20121;-57
2020/12/28 11:23:18;;;;;;;32.13;5.80;;;5.10;90.60;;;;;;4987839;28;20027;-58
2020/12/28 11:25:44;;;;;;;24.70;5.07;;;5.10;90.60;;;;;;4982329;28;20446;-57
2020/12/28 11:28:09;;;;;;;25.38;5.10;;;5.10;90.70;;;;;;4988080;28;20026;-58
2020/12/28 11:30:35;;;;;;;34.88;5.13;;;5.10;90.80;;;;;;4988058;28;20482;-59
2020/12/28 11:33:00;;;;;;;36.38;5.18;;;5.10;90.90;;;;;;4985791;28;20395;-58
2020/12/28 11:35:26;;;;;;;31.90;5.20;;;5.10;91.00;;;;;;4988156;28;20084;-57
2020/12/28 11:37:51;;;;;;;33.97;6.13;;;5.20;91.00;;;;;;4992984;28;20544;-59
2020/12/28 11:40:17;;;;;;;49.92;6.75;;;5.20;91.00;;;;;;4994536;28;20034;-58
2020/12/28 11:42:42;;;;;;;29.63;5.18;;;5.10;91.00;;;;;;4987025;28;20037;-57
2020/12/28 11:45:09;;;;;;;43.45;6.25;;;5.20;91.20;;;;;;4989045;28;20041;-58
2020/12/28 11:47:38;;;;;;;23.98;5.22;;;5.20;91.20;;;;;;4994320;28;20625;-59
2020/12/28 11:50:04;;;;;;;29.98;5.60;;;5.10;91.20;;;;;;4991950;28;20025;-58
2020/12/28 11:52:29;;;;;;;43.20;6.13;;;5.10;91.00;;;;;;4973244;28;20022;-57
2020/12/28 11:54:55;;;;;;;53.65;6.97;;;5.20;90.90;;;;;;4991344;28;20048;-58
2020/12/28 11:57:20;;;;;;;54.97;8.77;;;5.20;91.00;;;;;;4986912;28;20253;-58
2020/12/28 11:59:46;;;;;;;55.08;8.10;;;5.20;90.90;;;;;;4990264;28;20069;-57
2020/12/28 12:02:11;;;;;;;72.40;9.80;;;5.20;90.90;;;;;;4982756;28;20027;-57
2020/12/28 12:04:49;;;;;;;53.90;6.82;;;5.20;90.80;;;;;;4988515;28;20030;-58
2020/12/28 12:07:22;;;;;;;70.85;8.95;;;5.20;90.70;;;;;;4987809;28;20450;-57
2020/12/28 12:09:48;;;;;;;61.28;8.30;;;5.20;90.60;;;;;;4985637;28;20041;-58
2020/12/28 12:12:14;;;;;;;58.60;8.85;;;5.20;90.70;;;;;;4972524;28;20022;-57
2020/12/28 12:14:40;;;;;;;68.78;9.82;;;5.20;90.70;;;;;;4974433;28;20073;-59
2020/12/28 12:17:06;;;;;;;66.68;8.80;;;5.30;90.70;;;;;;4982663;28;20115;-57
2020/12/28 12:19:31;;;;;;;76.65;11.60;;;5.20;90.50;;;;;;4988883;28;20364;-58
2020/12/28 12:21:57;;;;;;;52.00;11.25;;;5.30;90.50;;;;;;4968429;28;20465;-58
2020/12/28 12:24:22;;;;;;;65.18;10.07;;;5.30;90.50;;;;;;4988637;28;20414;-57
2020/12/28 12:26:48;;;;;;;75.25;10.88;;;5.30;90.60;;;;;;4988637;28;20021;-58
2020/12/28 12:29:13;;;;;;;95.35;11.20;;;5.30;90.60;;;;;;4991037;28;20030;-57
2020/12/28 12:31:39;;;;;;;78.18;10.02;;;5.30;90.60;;;;;;4989611;28;20042;-59
2020/12/28 12:34:04;;;;;;;57.67;10.35;;;5.30;90.60;;;;;;4988519;28;20030;-59
2020/12/28 12:36:30;;;;;;;79.00;10.55;;;5.30;90.60;;;;;;4985159;28;20125;-58
2020/12/28 12:38:55;;;;;;;81.50;10.73;;;5.40;90.60;;;;;;4985913;28;20034;-58
2020/12/28 12:41:21;;;;;;;83.30;11.80;;;5.40;90.60;;;;;;4971656;28;20029;-59
2020/12/28 12:43:47;;;;;;;93.88;11.27;;;5.40;90.60;;;;;;4971364;28;20039;-58
2020/12/28 12:46:13;;;;;;;72.93;11.75;;;5.40;90.60;;;;;;4979681;28;20382;-57